LFCK 181530Z AUTO 27013KT 240V300 CAVOK 24/15 Q1016 TEMPO SCT040TCU

ElémentsDécodage
LFCK Station météo située sur l'aérodrome de CASTRES Mazamet
181530Z émis le 18 du mois à 15h30 UTC
AUTO Bulletin édité par un automate
27013KT vent du 270°, 13 noeuds
240V300 vent de direction variable entre 240° et 300°
CAVOK Ceiling And Visibility OK
- Visibilité de 10 Km ou plus
- Pas de nuage au-dessous de 1500m ou au-dessous de l'altitude minimale du secteur la plus élevée (si>1500m) et absence de CB
- pas de temps présent significatif
24/15 température 24°C, point de rosée 15°C
 soit une humidité relative de 57%
Q1016 la pression au niveau de la mer (QNH) est de 1016 hPa
TEMPO fluctuation temporaire prévue
SCT040TCU nuages épars (3/8 à 4/8) à 4000 pieds
 présence de cumulus congestus